Mount Hope — C4QH2 — position and weather

sailwx.info

Track history (hours):
 
Tides and Currents Weather Stations Pressure Air Temp Water Temp Dewpoint Dewpoint Depression Visibility Wind Speed Wind Dir Waves Ship Positions

Mount Hope

Last reported at 2014-Jul-05 07:05 UTC. Time now 2014-Jul-25 06:50 UTC.
Position N 30°09' W 117°55'.
Warning: this ship's position is 19 days out of date.

Length 182 m; draft 11.2 m.

Type: Tanker. MMSI: 210137000.

Date/timePositionNaut miles runAvg speedWind from/ knotsBaromVisibWave heightAir tempDewpointWater temp
2014-Jul-05 07:05N 30°09' W 117°55'2013.0
2014-Jul-05 05:33N 30°26' W 118°08'1313.0
2014-Jul-05 04:33N 30°36' W 118°17'1612.7
2014-Jul-05 03:19N 30°49' W 118°27'1012.8
2014-Jul-05 02:33N 30°57' W 118°34'1313.0
2014-Jul-05 01:33N 31°08' W 118°43'1312.9
2014-Jul-05 00:33N 31°18' W 118°52'1312.9
2014-Jul-04 23:33N 31°29' W 119°00'1312.8
2014-Jul-04 22:33N 31°39' W 119°09'1313.2
2014-Jul-04 21:33N 31°50' W 119°18'1313.1
2014-Jul-04 20:33N 32°01' W 119°27'1313.0
2014-Jul-04 19:33N 32°11' W 119°36'1312.8
2014-Jul-04 18:33N 32°22' W 119°44'1312.8
2014-Jul-04 17:32N 32°32' W 119°53'1212.7
2014-Jul-04 16:33N 32°42' W 120°02'1312.5
2014-Jul-04 15:32N 32°53' W 120°11'1212.4
2014-Jul-04 14:33N 33°03' W 120°19'1212.4
2014-Jul-04 13:33N 33°13' W 120°28'1312.6
2014-Jul-04 12:33N 33°23' W 120°36'1312.3
2014-Jul-04 11:30N 33°34' W 120°45'1212.3
2014-Jul-04 10:32N 33°43' W 120°54'25012.4
2014-Jul-03 14:28N 37°29' W 123°04'1010.6
2014-Jul-03 13:33N 37°37' W 122°57'1212.2
2014-Jul-03 12:33N 37°43' W 122°44'9 9.5
2014-Jul-03 11:33N 37°48' W 122°33'7 7.4
2014-Jul-03 10:33N 37°50' W 122°24'5 4.9
2014-Jul-03 09:32N 37°45' W 122°21'0 0.0
2014-Jul-03 08:32N 37°45' W 122°21'0 0.0
2014-Jul-03 07:32N 37°46' W 122°21'0 0.1
2014-Jul-03 06:32N 37°46' W 122°21'0 0.2
2014-Jul-03 05:32N 37°46' W 122°21'0 0.0
2014-Jul-03 04:32N 37°46' W 122°21'0 0.0
2014-Jul-03 03:32N 37°46' W 122°21'1 1.2
2014-Jul-03 02:34N 37°47' W 122°22'9 9.1
2014-Jul-03 01:34N 37°55' W 122°27'8 8.4
2014-Jul-03 00:34N 38°02' W 122°22'5 4.5
2014-Jul-02 23:28N 38°03' W 122°16'0 0.0
2014-Jul-01 23:23N 38°03' W 122°16'0 0.0
2014-Jul-01 09:11N 38°03' W 122°16'0 0.0
2014-Jul-01 08:22N 38°03' W 122°16'0 0.0
2014-Jul-01 07:16N 38°03' W 122°16'0 0.0
2014-Jul-01 06:28N 38°03' W 122°16'0 0.0
2014-Jul-01 04:28N 38°03' W 122°16'0 0.0
2014-Jul-01 03:22N 38°03' W 122°16'0 0.0
2014-Jul-01 02:28N 38°03' W 122°16'0 0.0
2014-Jul-01 01:29N 38°03' W 122°16'0 0.0
2014-Jul-01 00:28N 38°03' W 122°16'0 0.0
2014-Jun-30 23:29N 38°03' W 122°16'0 0.0
2014-Jun-30 22:28N 38°03' W 122°16'0 0.0
2014-Jun-30 21:28N 38°03' W 122°16'0 0.0
2014-Jun-30 20:28N 38°03' W 122°16'0 0.0
2014-Jun-30 19:29N 38°03' W 122°16'0 0.0
2014-Jun-30 18:28N 38°03' W 122°16'0 0.0
2014-Jun-30 16:29N 38°03' W 122°16'0 0.0
2014-Jun-30 15:28N 38°03' W 122°16'0 0.0
2014-Jun-30 14:28N 38°03' W 122°16'0 0.0
2014-Jun-30 13:28N 38°03' W 122°16'0 0.0
2014-Jun-30 12:28N 38°03' W 122°16'0 0.0
2014-Jun-30 11:28N 38°03' W 122°16'0 0.0
2014-Jun-30 10:28N 38°03' W 122°16'0 0.0
2014-Jun-30 09:28N 38°03' W 122°16'0 0.0
2014-Jun-30 08:23N 38°03' W 122°16'0 0.0
2014-Jun-30 07:28N 38°03' W 122°16'0 0.0
2014-Jun-30 06:28N 38°03' W 122°16'0 0.0
2014-Jun-30 05:28N 38°03' W 122°16'0 0.0
2014-Jun-30 04:28N 38°03' W 122°16'0 0.0
2014-Jun-30 03:28N 38°03' W 122°16'0 0.0
2014-Jun-30 02:29N 38°03' W 122°16'0 0.0
2014-Jun-30 01:29N 38°03' W 122°16'0 0.0
2014-Jun-30 00:28N 38°03' W 122°16'0 0.0
2014-Jun-29 23:23N 38°03' W 122°16'0 0.0
2014-Jun-29 22:28N 38°03' W 122°16'0 0.0
2014-Jun-29 21:33N 38°03' W 122°16'7 6.5
2014-Jun-29 20:33N 38°01' W 122°24'1010.1
2014-Jun-29 19:33N 37°51' W 122°24'7 6.4
2014-Jun-29 18:32N 37°46' W 122°20'0 0.0
2014-Jun-29 17:32N 37°46' W 122°20'0 0.1
2014-Jun-29 16:32N 37°46' W 122°20'0 0.1
2014-Jun-29 15:32N 37°46' W 122°20'0 0.0
2014-Jun-29 14:32N 37°46' W 122°20'0 0.0
2014-Jun-29 13:32N 37°46' W 122°20'0 0.0
2014-Jun-29 12:32N 37°46' W 122°20'0 0.0
2014-Jun-29 11:32N 37°46' W 122°20'0 0.0
2014-Jun-29 10:32N 37°46' W 122°20'0 0.0
2014-Jun-29 09:32N 37°46' W 122°20'0 0.1
2014-Jun-29 08:32N 37°46' W 122°20'0 0.1
2014-Jun-29 07:32N 37°46' W 122°20'0 0.0
2014-Jun-29 06:32N 37°46' W 122°20'0 0.0
2014-Jun-29 05:32N 37°46' W 122°20'0 0.0
2014-Jun-29 04:32N 37°46' W 122°20'0 0.1
2014-Jun-29 03:32N 37°46' W 122°20'0 0.2
2014-Jun-29 02:32N 37°46' W 122°20'0 0.0
2014-Jun-29 01:31N 37°46' W 122°20'0 0.0
2014-Jun-29 00:31N 37°46' W 122°20'0 0.0
2014-Jun-28 23:31N 37°46' W 122°20'0 0.1
2014-Jun-28 22:31N 37°46' W 122°20'0 0.1
2014-Jun-28 21:31N 37°46' W 122°20'0 0.1
2014-Jun-28 20:31N 37°46' W 122°20'0 0.0
2014-Jun-28 19:31N 37°46' W 122°20'0 0.0
2014-Jun-28 18:31N 37°46' W 122°20'0 0.0
2014-Jun-28 17:31N 37°46' W 122°20'0 0.0
2014-Jun-28 16:31N 37°46' W 122°20'0 0.2
2014-Jun-28 15:31N 37°46' W 122°20'0 0.0
2014-Jun-28 14:31N 37°46' W 122°20'0 0.0
2014-Jun-28 13:31N 37°46' W 122°20'0 0.0
2014-Jun-28 12:31N 37°46' W 122°20'0 0.0
2014-Jun-28 11:31N 37°46' W 122°20'0 0.0
2014-Jun-28 10:31N 37°46' W 122°20'0 0.1
2014-Jun-28 09:32N 37°46' W 122°20'8 8.4
2014-Jun-28 08:33N 37°49' W 122°30'1211.6
2014-Jun-28 07:33N 37°43' W 122°42'7 7.4
2014-Jun-28 06:33N 37°39' W 122°50'1211.7
2014-Jun-28 05:34N 37°32' W 123°02'1110.6
2014-Jun-28 04:33N 37°22' W 123°01'1111.0
2014-Jun-28 03:33N 37°11' W 122°59'1211.0
2014-Jun-28 02:28N 36°59' W 122°56'1212.4
2014-Jun-28 01:31N 36°48' W 122°53'1712.5
2014-Jun-28 00:09N 36°31' W 122°49'812.6
2014-Jun-27 23:31N 36°23' W 122°48'26611.9
2014-Jun-27 01:08N 32°37' W 119°58'711.8
2014-Jun-27 00:33N 32°31' W 119°53'1211.9
2014-Jun-26 23:33N 32°22' W 119°45'1312.2
2014-Jun-26 22:30N 32°11' W 119°36'1412.2
2014-Jun-26 21:21N 31°60' W 119°26'1012.1
2014-Jun-26 20:32N 31°52' W 119°20'1212.0
2014-Jun-26 19:33N 31°42' W 119°12'2612.2
2014-Jun-26 17:23N 31°21' W 118°54'1612.1
2014-Jun-26 16:05N 31°08' W 118°43'2012.3
2014-Jun-26 14:29N 30°52' W 118°29'  
Track history (hours):
 
Tides and Currents Weather Stations Pressure Air Temp Water Temp Dewpoint Dewpoint Depression Visibility Wind Speed Wind Dir Waves Ship Positions

Mount Hope

Last reported at 2014-Jul-05 07:05 UTC. Time now 2014-Jul-25 06:50 UTC.
Position N 30°09' W 117°55'.
Warning: this ship's position is 19 days out of date.

Length 182 m; draft 11.2 m.

Type: Tanker. MMSI: 210137000.

Date/timePositionNaut miles runAvg speedWind from/ knotsBaromVisibWave heightAir tempDewpointWater temp
2014-Jul-05 07:05N 30°09' W 117°55'2013.0
2014-Jul-05 05:33N 30°26' W 118°08'1313.0
2014-Jul-05 04:33N 30°36' W 118°17'1612.7
2014-Jul-05 03:19N 30°49' W 118°27'1012.8
2014-Jul-05 02:33N 30°57' W 118°34'1313.0
2014-Jul-05 01:33N 31°08' W 118°43'1312.9
2014-Jul-05 00:33N 31°18' W 118°52'1312.9
2014-Jul-04 23:33N 31°29' W 119°00'1312.8
2014-Jul-04 22:33N 31°39' W 119°09'1313.2
2014-Jul-04 21:33N 31°50' W 119°18'1313.1
2014-Jul-04 20:33N 32°01' W 119°27'1313.0
2014-Jul-04 19:33N 32°11' W 119°36'1312.8
2014-Jul-04 18:33N 32°22' W 119°44'1312.8
2014-Jul-04 17:32N 32°32' W 119°53'1212.7
2014-Jul-04 16:33N 32°42' W 120°02'1312.5
2014-Jul-04 15:32N 32°53' W 120°11'1212.4
2014-Jul-04 14:33N 33°03' W 120°19'1212.4
2014-Jul-04 13:33N 33°13' W 120°28'1312.6
2014-Jul-04 12:33N 33°23' W 120°36'1312.3
2014-Jul-04 11:30N 33°34' W 120°45'1212.3
2014-Jul-04 10:32N 33°43' W 120°54'25012.4
2014-Jul-03 14:28N 37°29' W 123°04'1010.6
2014-Jul-03 13:33N 37°37' W 122°57'1212.2
2014-Jul-03 12:33N 37°43' W 122°44'9 9.5
2014-Jul-03 11:33N 37°48' W 122°33'7 7.4
2014-Jul-03 10:33N 37°50' W 122°24'5 4.9
2014-Jul-03 09:32N 37°45' W 122°21'0 0.0
2014-Jul-03 08:32N 37°45' W 122°21'0 0.0
2014-Jul-03 07:32N 37°46' W 122°21'0 0.1
2014-Jul-03 06:32N 37°46' W 122°21'0 0.2
2014-Jul-03 05:32N 37°46' W 122°21'0 0.0
2014-Jul-03 04:32N 37°46' W 122°21'0 0.0
2014-Jul-03 03:32N 37°46' W 122°21'1 1.2
2014-Jul-03 02:34N 37°47' W 122°22'9 9.1
2014-Jul-03 01:34N 37°55' W 122°27'8 8.4
2014-Jul-03 00:34N 38°02' W 122°22'5 4.5
2014-Jul-02 23:28N 38°03' W 122°16'0 0.0
2014-Jul-01 23:23N 38°03' W 122°16'0 0.0
2014-Jul-01 09:11N 38°03' W 122°16'0 0.0
2014-Jul-01 08:22N 38°03' W 122°16'0 0.0
2014-Jul-01 07:16N 38°03' W 122°16'0 0.0
2014-Jul-01 06:28N 38°03' W 122°16'0 0.0
2014-Jul-01 04:28N 38°03' W 122°16'0 0.0
2014-Jul-01 03:22N 38°03' W 122°16'0 0.0
2014-Jul-01 02:28N 38°03' W 122°16'0 0.0
2014-Jul-01 01:29N 38°03' W 122°16'0 0.0
2014-Jul-01 00:28N 38°03' W 122°16'0 0.0
2014-Jun-30 23:29N 38°03' W 122°16'0 0.0
2014-Jun-30 22:28N 38°03' W 122°16'0 0.0
2014-Jun-30 21:28N 38°03' W 122°16'0 0.0
2014-Jun-30 20:28N 38°03' W 122°16'0 0.0
2014-Jun-30 19:29N 38°03' W 122°16'0 0.0
2014-Jun-30 18:28N 38°03' W 122°16'0 0.0
2014-Jun-30 16:29N 38°03' W 122°16'0 0.0
2014-Jun-30 15:28N 38°03' W 122°16'0 0.0
2014-Jun-30 14:28N 38°03' W 122°16'0 0.0
2014-Jun-30 13:28N 38°03' W 122°16'0 0.0
2014-Jun-30 12:28N 38°03' W 122°16'0 0.0
2014-Jun-30 11:28N 38°03' W 122°16'0 0.0
2014-Jun-30 10:28N 38°03' W 122°16'0 0.0
2014-Jun-30 09:28N 38°03' W 122°16'0 0.0
2014-Jun-30 08:23N 38°03' W 122°16'0 0.0
2014-Jun-30 07:28N 38°03' W 122°16'0 0.0
2014-Jun-30 06:28N 38°03' W 122°16'0 0.0
2014-Jun-30 05:28N 38°03' W 122°16'0 0.0
2014-Jun-30 04:28N 38°03' W 122°16'0 0.0
2014-Jun-30 03:28N 38°03' W 122°16'0 0.0
2014-Jun-30 02:29N 38°03' W 122°16'0 0.0
2014-Jun-30 01:29N 38°03' W 122°16'0 0.0
2014-Jun-30 00:28N 38°03' W 122°16'0 0.0
2014-Jun-29 23:23N 38°03' W 122°16'0 0.0
2014-Jun-29 22:28N 38°03' W 122°16'0 0.0
2014-Jun-29 21:33N 38°03' W 122°16'7 6.5
2014-Jun-29 20:33N 38°01' W 122°24'1010.1
2014-Jun-29 19:33N 37°51' W 122°24'7 6.4
2014-Jun-29 18:32N 37°46' W 122°20'0 0.0
2014-Jun-29 17:32N 37°46' W 122°20'0 0.1
2014-Jun-29 16:32N 37°46' W 122°20'0 0.1
2014-Jun-29 15:32N 37°46' W 122°20'0 0.0
2014-Jun-29 14:32N 37°46' W 122°20'0 0.0
2014-Jun-29 13:32N 37°46' W 122°20'0 0.0
2014-Jun-29 12:32N 37°46' W 122°20'0 0.0
2014-Jun-29 11:32N 37°46' W 122°20'0 0.0
2014-Jun-29 10:32N 37°46' W 122°20'0 0.0
2014-Jun-29 09:32N 37°46' W 122°20'0 0.1
2014-Jun-29 08:32N 37°46' W 122°20'0 0.1
2014-Jun-29 07:32N 37°46' W 122°20'0 0.0
2014-Jun-29 06:32N 37°46' W 122°20'0 0.0
2014-Jun-29 05:32N 37°46' W 122°20'0 0.0
2014-Jun-29 04:32N 37°46' W 122°20'0 0.1
2014-Jun-29 03:32N 37°46' W 122°20'0 0.2
2014-Jun-29 02:32N 37°46' W 122°20'0 0.0
2014-Jun-29 01:31N 37°46' W 122°20'0 0.0
2014-Jun-29 00:31N 37°46' W 122°20'0 0.0
2014-Jun-28 23:31N 37°46' W 122°20'0 0.1
2014-Jun-28 22:31N 37°46' W 122°20'0 0.1
2014-Jun-28 21:31N 37°46' W 122°20'0 0.1
2014-Jun-28 20:31N 37°46' W 122°20'0 0.0
2014-Jun-28 19:31N 37°46' W 122°20'0 0.0
2014-Jun-28 18:31N 37°46' W 122°20'0 0.0
2014-Jun-28 17:31N 37°46' W 122°20'0 0.0
2014-Jun-28 16:31N 37°46' W 122°20'0 0.2
2014-Jun-28 15:31N 37°46' W 122°20'0 0.0
2014-Jun-28 14:31N 37°46' W 122°20'0 0.0
2014-Jun-28 13:31N 37°46' W 122°20'0 0.0
2014-Jun-28 12:31N 37°46' W 122°20'0 0.0
2014-Jun-28 11:31N 37°46' W 122°20'0 0.0
2014-Jun-28 10:31N 37°46' W 122°20'0 0.1
2014-Jun-28 09:32N 37°46' W 122°20'8 8.4
2014-Jun-28 08:33N 37°49' W 122°30'1211.6
2014-Jun-28 07:33N 37°43' W 122°42'7 7.4
2014-Jun-28 06:33N 37°39' W 122°50'1211.7
2014-Jun-28 05:34N 37°32' W 123°02'1110.6
2014-Jun-28 04:33N 37°22' W 123°01'1111.0
2014-Jun-28 03:33N 37°11' W 122°59'1211.0
2014-Jun-28 02:28N 36°59' W 122°56'1212.4
2014-Jun-28 01:31N 36°48' W 122°53'1712.5
2014-Jun-28 00:09N 36°31' W 122°49'812.6
2014-Jun-27 23:31N 36°23' W 122°48'26611.9
2014-Jun-27 01:08N 32°37' W 119°58'711.8
2014-Jun-27 00:33N 32°31' W 119°53'1211.9
2014-Jun-26 23:33N 32°22' W 119°45'1312.2
2014-Jun-26 22:30N 32°11' W 119°36'1412.2
2014-Jun-26 21:21N 31°60' W 119°26'1012.1
2014-Jun-26 20:32N 31°52' W 119°20'1212.0
2014-Jun-26 19:33N 31°42' W 119°12'2612.2
2014-Jun-26 17:23N 31°21' W 118°54'1612.1
2014-Jun-26 16:05N 31°08' W 118°43'2012.3
2014-Jun-26 14:29N 30°52' W 118°29'  

Dump ship's entire track history